createdAt,value
2023-02-06T00:02:07.461Z,6.53
2023-02-06T00:04:34.122Z,6.77
2023-02-06T00:07:00.866Z,7.67
2023-02-06T00:09:27.642Z,6.97
2023-02-06T00:11:54.196Z,6.33
2023-02-06T00:14:20.778Z,7.07
2023-02-06T00:16:47.319Z,6.37
2023-02-06T00:19:13.929Z,7.00
2023-02-06T00:21:40.737Z,6.57
2023-02-06T00:24:07.605Z,6.87
2023-02-06T00:26:34.297Z,6.13
2023-02-06T00:29:01.164Z,6.07
2023-02-06T00:31:27.916Z,6.07
2023-02-06T00:33:54.637Z,6.40
2023-02-06T00:36:21.178Z,6.53
2023-02-06T00:38:47.910Z,6.43
2023-02-06T00:41:14.834Z,5.90
2023-02-06T00:43:42.230Z,7.43
2023-02-06T00:46:08.896Z,6.33
2023-02-06T00:48:35.756Z,6.70
2023-02-06T00:51:02.864Z,5.63
2023-02-06T00:53:29.558Z,5.37
2023-02-06T00:55:56.183Z,7.37
2023-02-06T00:58:22.990Z,5.37
2023-02-06T01:00:49.828Z,7.00
2023-02-06T01:03:16.535Z,6.43
2023-02-06T01:05:43.102Z,6.80
2023-02-06T01:08:09.729Z,5.23
2023-02-06T01:10:36.407Z,6.73
2023-02-06T01:13:03.059Z,6.23
2023-02-06T01:15:31.181Z,5.60
2023-02-06T01:17:57.884Z,5.17
2023-02-06T01:20:25.075Z,6.60
2023-02-06T01:22:51.850Z,6.43
2023-02-06T01:25:19.052Z,7.57
2023-02-06T01:27:45.897Z,5.33
2023-02-06T01:30:13.277Z,7.13
2023-02-06T01:32:40.949Z,6.93
2023-02-06T01:35:09.457Z,5.73
2023-02-06T01:37:39.299Z,6.23
2023-02-06T01:40:08.333Z,6.63
2023-02-06T01:42:36.645Z,5.87
2023-02-06T01:45:21.392Z,7.43
2023-02-06T01:47:50.059Z,6.90
2023-02-06T01:50:16.897Z,7.10
2023-02-06T01:52:43.664Z,7.20
2023-02-06T01:55:10.251Z,6.17
2023-02-06T01:57:36.920Z,6.20
2023-02-06T02:00:08.567Z,5.53
2023-02-06T02:02:37.764Z,7.23
2023-02-06T02:05:07.326Z,6.43
2023-02-06T02:07:37.545Z,8.10
2023-02-06T02:10:05.321Z,6.87
2023-02-06T02:12:31.915Z,5.80
2023-02-06T02:14:59.535Z,5.93
2023-02-06T02:17:32.326Z,6.37
2023-02-06T02:20:14.255Z,7.20
2023-02-06T02:23:04.768Z,7.20
2023-02-06T02:26:18.907Z,6.90
2023-02-06T02:29:07.149Z,7.77
2023-02-06T02:31:58.474Z,6.13
2023-02-06T02:34:33.209Z,7.37
2023-02-06T02:37:11.981Z,7.87
2023-02-06T02:39:59.388Z,5.87
2023-02-06T02:42:47.257Z,6.80
2023-02-06T02:45:26.968Z,7.00
2023-02-06T02:48:04.124Z,6.03
2023-02-06T02:50:32.806Z,7.60
2023-02-06T02:53:00.939Z,5.77
2023-02-06T02:55:27.688Z,7.53
2023-02-06T02:58:01.536Z,7.73
2023-02-06T03:00:30.992Z,7.40
2023-02-06T03:02:58.601Z,7.60
2023-02-06T03:05:26.865Z,9.03
2023-02-06T03:08:11.522Z,8.27
2023-02-06T03:11:04.258Z,7.87
2023-02-06T03:13:54.712Z,6.47
2023-02-06T03:16:37.127Z,6.67
2023-02-06T03:19:15.162Z,8.03
2023-02-06T03:21:44.867Z,5.97
2023-02-06T03:24:17.246Z,7.57
2023-02-06T03:26:45.336Z,8.10
2023-02-06T03:29:15.899Z,6.90
2023-02-06T03:31:47.844Z,6.67
2023-02-06T03:34:20.685Z,6.40
2023-02-06T03:36:48.829Z,7.77
2023-02-06T03:39:15.738Z,6.90
2023-02-06T03:41:44.349Z,6.77
2023-02-06T03:44:15.547Z,6.67
2023-02-06T03:46:44.060Z,7.43
2023-02-06T03:49:14.662Z,7.90
2023-02-06T03:51:46.106Z,7.53
2023-02-06T03:54:17.378Z,7.13
2023-02-06T03:56:48.753Z,6.17
2023-02-06T03:59:15.546Z,6.90
2023-02-06T04:01:50.577Z,8.30
2023-02-06T04:04:25.087Z,9.67
2023-02-06T04:06:51.679Z,10.90
2023-02-06T04:09:18.322Z,9.03
2023-02-06T04:11:44.781Z,11.23
2023-02-06T04:14:11.375Z,9.27
2023-02-06T04:16:38.196Z,9.70
2023-02-06T04:19:04.816Z,9.13
2023-02-06T04:21:31.436Z,8.43
2023-02-06T04:23:57.987Z,6.50
2023-02-06T04:26:24.852Z,8.43
2023-02-06T04:28:51.570Z,7.33
2023-02-06T04:31:18.253Z,7.63
2023-02-06T04:33:44.911Z,7.77
2023-02-06T04:36:11.481Z,8.43
2023-02-06T04:38:38.132Z,8.67
2023-02-06T04:41:07.293Z,9.13
2023-02-06T04:43:34.691Z,8.27
2023-02-06T04:46:01.444Z,7.37
2023-02-06T04:48:28.457Z,8.77
2023-02-06T04:50:55.083Z,8.20
2023-02-06T04:53:21.762Z,8.60
2023-02-06T04:55:48.525Z,6.93
2023-02-06T04:58:15.107Z,7.67
2023-02-06T05:00:41.684Z,8.77
2023-02-06T05:03:08.133Z,7.27
2023-02-06T05:05:35.130Z,7.50
2023-02-06T05:08:01.869Z,8.00
2023-02-06T05:10:28.533Z,7.97
2023-02-06T05:12:56.165Z,8.33
2023-02-06T05:15:22.826Z,6.63
2023-02-06T05:17:49.387Z,7.17
2023-02-06T05:20:16.103Z,7.80
2023-02-06T05:22:42.816Z,6.27
2023-02-06T05:25:09.456Z,8.30
2023-02-06T05:27:36.235Z,5.40
2023-02-06T05:30:03.164Z,6.47
2023-02-06T05:32:29.727Z,7.90
2023-02-06T05:34:56.410Z,7.37
2023-02-06T05:37:23.086Z,7.50
2023-02-06T05:39:49.706Z,6.37
2023-02-06T05:42:16.329Z,7.03
2023-02-06T05:44:43.004Z,8.23
2023-02-06T05:47:09.715Z,6.97
2023-02-06T05:49:36.687Z,6.40
2023-02-06T05:52:03.416Z,7.00
2023-02-06T05:54:29.929Z,8.50
2023-02-06T05:56:58.035Z,6.83
2023-02-06T05:59:24.701Z,7.53
2023-02-06T06:01:51.392Z,6.50
2023-02-06T06:04:18.173Z,7.00
2023-02-06T06:06:45.017Z,8.10
2023-02-06T06:09:11.747Z,8.00
2023-02-06T06:11:38.364Z,6.67
2023-02-06T06:14:04.877Z,8.17
2023-02-06T06:16:31.649Z,6.40
2023-02-06T06:18:58.325Z,7.17
2023-02-06T06:21:25.030Z,7.70
2023-02-06T06:23:51.621Z,6.53
2023-02-06T06:26:18.170Z,7.37
2023-02-06T06:28:44.971Z,6.90
2023-02-06T06:31:12.296Z,7.23
2023-02-06T06:33:40.045Z,6.27
2023-02-06T06:36:08.609Z,5.90
2023-02-06T06:38:35.455Z,7.83
2023-02-06T06:41:02.531Z,6.77
2023-02-06T06:43:29.214Z,8.67
2023-02-06T06:45:55.978Z,6.10
2023-02-06T06:48:23.025Z,7.40
2023-02-06T06:50:50.579Z,8.97
2023-02-06T06:53:17.581Z,7.67
2023-02-06T06:55:44.603Z,7.47
2023-02-06T06:58:11.287Z,8.90
2023-02-06T07:00:38.798Z,9.63
2023-02-06T07:03:06.037Z,9.40
2023-02-06T07:05:33.421Z,7.63
2023-02-06T07:08:00.392Z,8.83
2023-02-06T07:10:27.086Z,7.13
2023-02-06T07:12:53.868Z,5.77
2023-02-06T07:15:20.947Z,6.23
2023-02-06T07:17:47.601Z,5.97
2023-02-06T07:20:15.541Z,7.03
2023-02-06T07:22:42.162Z,7.37
2023-02-06T07:25:08.855Z,6.47
2023-02-06T07:27:35.626Z,6.47
2023-02-06T07:30:02.210Z,6.03
2023-02-06T07:32:28.881Z,7.37
2023-02-06T07:34:55.574Z,7.03
2023-02-06T07:37:22.161Z,5.37
2023-02-06T07:39:48.849Z,6.33
2023-02-06T07:42:15.454Z,6.63
2023-02-06T07:44:42.032Z,6.13
2023-02-06T07:47:12.022Z,5.87
2023-02-06T07:49:38.751Z,5.90
2023-02-06T07:52:05.690Z,6.20
2023-02-06T07:54:32.667Z,6.73
2023-02-06T07:56:59.356Z,5.00
2023-02-06T07:59:26.578Z,5.87
2023-02-06T08:01:53.620Z,6.03
2023-02-06T08:04:20.457Z,5.77
2023-02-06T08:06:48.243Z,6.57
2023-02-06T08:09:19.054Z,6.27
2023-02-06T08:11:45.629Z,6.63
2023-02-06T08:14:12.530Z,7.47
2023-02-06T08:16:39.632Z,5.80
2023-02-06T08:19:11.203Z,6.07
2023-02-06T08:21:39.061Z,6.97
2023-02-06T08:24:06.185Z,5.97
2023-02-06T08:26:32.935Z,5.27
2023-02-06T08:29:03.804Z,5.00
2023-02-06T08:31:33.821Z,5.30
2023-02-06T08:34:01.227Z,4.67
2023-02-06T08:36:31.737Z,4.90
2023-02-06T08:38:59.882Z,6.13
2023-02-06T08:41:29.349Z,5.97
2023-02-06T08:43:58.755Z,5.63
2023-02-06T08:46:28.652Z,5.00
2023-02-06T08:48:59.784Z,4.40
2023-02-06T08:51:30.426Z,4.80
2023-02-06T08:54:03.310Z,3.80
2023-02-06T08:56:32.203Z,4.23
2023-02-06T08:59:00.082Z,5.20
2023-02-06T09:01:28.643Z,4.43
2023-02-06T09:03:57.610Z,4.97
2023-02-06T09:06:25.781Z,4.50
2023-02-06T09:08:53.482Z,4.60
2023-02-06T09:11:22.457Z,4.67
2023-02-06T09:13:49.765Z,5.10
2023-02-06T09:16:19.086Z,4.80
2023-02-06T09:18:46.906Z,5.57
2023-02-06T09:21:16.794Z,4.53
2023-02-06T09:23:46.561Z,4.07
2023-02-06T09:26:16.087Z,6.17
2023-02-06T09:28:42.931Z,5.30
2023-02-06T09:31:10.530Z,4.53
2023-02-06T09:33:38.908Z,4.60
2023-02-06T09:36:13.863Z,5.87
2023-02-06T09:38:44.090Z,4.10
2023-02-06T09:41:39.509Z,4.43
2023-02-06T09:44:27.287Z,4.97
2023-02-06T09:46:59.581Z,5.10
2023-02-06T09:49:39.243Z,5.73
2023-02-06T09:52:21.232Z,5.30
2023-02-06T09:54:53.664Z,4.77
2023-02-06T09:58:05.431Z,4.50
2023-02-06T10:01:08.642Z,5.50
2023-02-06T10:03:59.271Z,4.83
2023-02-06T10:06:30.301Z,4.13
2023-02-06T10:09:17.682Z,4.97
2023-02-06T10:11:59.043Z,4.23
2023-02-06T10:14:57.671Z,4.23
2023-02-06T10:17:27.250Z,4.67
2023-02-06T10:20:02.772Z,4.13
2023-02-06T10:23:08.814Z,3.57
2023-02-06T10:25:43.776Z,3.77
2023-02-06T10:28:21.495Z,5.33
2023-02-06T10:31:25.118Z,4.17
2023-02-06T10:34:19.653Z,4.10
2023-02-06T10:37:20.932Z,2.70
2023-02-06T10:40:32.198Z,3.63
2023-02-06T10:43:19.320Z,3.77
2023-02-06T10:46:24.769Z,4.13
2023-02-06T10:49:05.841Z,3.80
2023-02-06T10:51:38.176Z,3.67
2023-02-06T10:54:12.116Z,3.73
2023-02-06T10:56:48.174Z,4.77
2023-02-06T10:59:32.927Z,4.10
2023-02-06T11:02:26.228Z,3.57
2023-02-06T11:05:14.258Z,2.60
2023-02-06T11:07:49.002Z,3.73
2023-02-06T11:10:21.912Z,2.20
2023-02-06T11:12:55.765Z,3.13
2023-02-06T11:15:32.963Z,2.73
2023-02-06T11:18:02.257Z,2.87
2023-02-06T11:20:33.410Z,2.27
2023-02-06T11:23:17.476Z,2.70
2023-02-06T11:25:46.237Z,2.30
2023-02-06T11:28:16.230Z,2.07
2023-02-06T11:30:58.583Z,2.10
2023-02-06T11:33:49.854Z,2.50
2023-02-06T11:36:38.866Z,1.80
2023-02-06T11:39:20.576Z,2.00
2023-02-06T11:42:18.714Z,1.60
2023-02-06T11:44:50.741Z,1.77
2023-02-06T11:47:38.269Z,2.13
2023-02-06T11:50:24.665Z,3.30
2023-02-06T11:52:57.342Z,2.53
2023-02-06T11:55:34.665Z,3.13
2023-02-06T11:58:21.531Z,3.63
2023-02-06T12:00:51.086Z,3.17
2023-02-06T12:03:33.180Z,2.57
2023-02-06T12:06:10.117Z,3.30
2023-02-06T12:08:40.695Z,2.97
2023-02-06T12:11:14.732Z,2.57
2023-02-06T12:13:47.889Z,2.93
2023-02-06T12:16:15.652Z,1.50
2023-02-06T12:18:45.869Z,2.23
2023-02-06T12:21:16.689Z,1.80
2023-02-06T12:23:53.025Z,2.27
2023-02-06T12:26:23.401Z,2.23
2023-02-06T12:29:15.704Z,1.20
2023-02-06T12:31:54.053Z,1.60
2023-02-06T12:34:25.487Z,0.77
2023-02-06T12:37:00.634Z,1.87
2023-02-06T12:39:33.319Z,1.43
2023-02-06T12:42:32.623Z,2.07
2023-02-06T12:45:07.985Z,1.27
2023-02-06T12:47:44.679Z,1.73
2023-02-06T12:50:23.644Z,1.67
2023-02-06T12:53:14.531Z,1.90
2023-02-06T12:55:47.881Z,1.73
2023-02-06T12:58:53.239Z,1.90
2023-02-06T13:01:37.431Z,1.27
2023-02-06T13:04:11.792Z,1.10
2023-02-06T13:06:58.042Z,1.20
2023-02-06T13:09:31.331Z,1.27
2023-02-06T13:12:29.494Z,1.13
2023-02-06T13:15:03.318Z,1.27
2023-02-06T13:17:45.310Z,0.80
2023-02-06T13:20:14.694Z,1.20
2023-02-06T13:22:51.106Z,1.50
2023-02-06T13:25:29.928Z,1.87
2023-02-06T13:27:59.108Z,1.63
2023-02-06T13:30:29.032Z,1.17
2023-02-06T13:33:22.761Z,1.77
2023-02-06T13:36:10.199Z,0.97
2023-02-06T13:38:39.179Z,1.27
2023-02-06T13:41:14.657Z,2.10
2023-02-06T13:43:45.686Z,1.37
2023-02-06T13:46:20.087Z,1.23
2023-02-06T13:49:18.128Z,1.60
2023-02-06T13:52:15.533Z,1.30
2023-02-06T13:55:21.634Z,1.83
2023-02-06T13:58:34.233Z,1.13
2023-02-06T14:01:04.156Z,1.13
2023-02-06T14:03:33.939Z,2.10
2023-02-06T14:06:20.923Z,1.37
2023-02-06T14:09:06.484Z,2.13
2023-02-06T14:12:07.682Z,2.57
2023-02-06T14:14:34.244Z,2.50
2023-02-06T14:17:19.555Z,2.00
2023-02-06T14:19:50.566Z,1.57
2023-02-06T14:22:26.331Z,2.00
2023-02-06T14:25:09.697Z,2.23
2023-02-06T14:28:04.887Z,2.23
2023-02-06T14:30:49.774Z,2.67
2023-02-06T14:33:22.178Z,2.60
2023-02-06T14:35:52.011Z,2.33
2023-02-06T14:38:31.654Z,2.30
2023-02-06T14:40:59.941Z,2.20
2023-02-06T14:43:31.875Z,2.10
2023-02-06T14:46:07.984Z,2.70
2023-02-06T14:48:41.526Z,1.80
2023-02-06T14:51:18.225Z,1.77
2023-02-06T14:54:01.838Z,2.43
2023-02-06T14:56:34.427Z,1.93
2023-02-06T14:59:13.371Z,2.90
2023-02-06T15:01:42.193Z,1.90
2023-02-06T15:04:23.885Z,2.00
2023-02-06T15:06:56.581Z,1.73
2023-02-06T15:09:31.140Z,2.47
2023-02-06T15:12:01.009Z,2.50
2023-02-06T15:14:31.084Z,2.20
2023-02-06T15:17:02.815Z,2.03
2023-02-06T15:19:35.825Z,1.73
2023-02-06T15:22:14.484Z,1.70
2023-02-06T15:25:09.204Z,1.60
2023-02-06T15:27:38.004Z,1.43
2023-02-06T15:30:24.046Z,2.43
2023-02-06T15:32:53.286Z,2.67
2023-02-06T15:35:26.918Z,2.17
2023-02-06T15:37:55.072Z,2.43
2023-02-06T15:40:31.124Z,2.33
2023-02-06T15:42:59.102Z,2.13
2023-02-06T15:45:30.583Z,2.50
2023-02-06T15:48:07.924Z,2.60
2023-02-06T15:50:34.961Z,2.43
2023-02-06T15:53:20.684Z,2.10
2023-02-06T15:55:54.258Z,2.27
2023-02-06T15:58:21.061Z,1.70
2023-02-06T16:00:53.600Z,2.00
2023-02-06T16:03:25.567Z,2.20
2023-02-06T16:05:53.336Z,2.67
2023-02-06T16:08:24.409Z,2.07
2023-02-06T16:10:54.497Z,2.30
2023-02-06T16:13:26.089Z,2.90
2023-02-06T16:16:11.756Z,2.03
2023-02-06T16:18:42.418Z,2.63
2023-02-06T16:21:13.553Z,2.80
2023-02-06T16:23:49.044Z,2.83
2023-02-06T16:26:20.367Z,2.40
2023-02-06T16:28:54.193Z,2.37
2023-02-06T16:31:21.192Z,2.13
2023-02-06T16:33:50.996Z,3.00
2023-02-06T16:36:19.838Z,2.37
2023-02-06T16:38:57.736Z,2.33
2023-02-06T16:41:38.888Z,2.03
2023-02-06T16:44:15.249Z,3.73
2023-02-06T16:46:41.987Z,3.33
2023-02-06T16:49:17.340Z,2.37
2023-02-06T16:51:46.068Z,2.27
2023-02-06T16:54:20.580Z,2.53
2023-02-06T16:56:47.898Z,2.73
2023-02-06T16:59:14.655Z,2.20
2023-02-06T17:01:41.476Z,1.87
2023-02-06T17:04:08.374Z,1.83
2023-02-06T17:06:36.205Z,1.93
2023-02-06T17:09:09.098Z,1.70
2023-02-06T17:11:36.859Z,1.63
2023-02-06T17:14:03.812Z,1.63
2023-02-06T17:16:31.407Z,1.67
2023-02-06T17:18:58.238Z,1.80
2023-02-06T17:21:27.579Z,2.30
2023-02-06T17:23:54.353Z,1.90
2023-02-06T17:26:23.253Z,1.67
2023-02-06T17:28:51.335Z,1.40
2023-02-06T17:31:18.877Z,1.40
2023-02-06T17:33:45.577Z,1.40
2023-02-06T17:36:32.414Z,2.27
2023-02-06T17:39:00.197Z,1.93
2023-02-06T17:41:27.676Z,1.97
2023-02-06T17:43:54.718Z,1.57
2023-02-06T17:46:21.422Z,2.07
2023-02-06T17:48:48.248Z,1.80
2023-02-06T17:51:15.154Z,1.93
2023-02-06T17:53:41.624Z,2.33
2023-02-06T17:56:13.180Z,1.97
2023-02-06T17:58:41.434Z,2.60
2023-02-06T18:01:13.052Z,1.67
2023-02-06T18:03:40.621Z,1.73
2023-02-06T18:06:07.811Z,2.10
2023-02-06T18:08:34.472Z,2.90
2023-02-06T18:11:06.673Z,2.43
2023-02-06T18:13:33.355Z,3.17
2023-02-06T18:15:59.838Z,2.20
2023-02-06T18:18:26.732Z,2.67
2023-02-06T18:20:53.459Z,2.27
2023-02-06T18:23:20.128Z,2.33
2023-02-06T18:25:46.856Z,2.60
2023-02-06T18:28:14.946Z,1.93
2023-02-06T18:30:42.140Z,3.13
2023-02-06T18:33:09.451Z,2.10
2023-02-06T18:35:40.845Z,2.27
2023-02-06T18:38:10.093Z,3.83
2023-02-06T18:40:41.384Z,3.27
2023-02-06T18:43:08.205Z,3.73
2023-02-06T18:45:37.800Z,3.83
2023-02-06T18:48:06.784Z,3.37
2023-02-06T18:50:34.344Z,2.70
2023-02-06T18:53:00.926Z,4.63
2023-02-06T18:55:27.839Z,3.73
2023-02-06T18:57:54.953Z,5.60
2023-02-06T19:00:23.516Z,5.23
2023-02-06T19:02:50.854Z,3.93
2023-02-06T19:05:18.790Z,4.83
2023-02-06T19:07:50.114Z,5.60
2023-02-06T19:10:18.502Z,5.23
2023-02-06T19:12:45.750Z,5.20
2023-02-06T19:15:14.942Z,4.03
2023-02-06T19:17:42.050Z,5.03
2023-02-06T19:20:10.373Z,4.60
2023-02-06T19:22:38.503Z,5.20
2023-02-06T19:25:10.573Z,4.77
2023-02-06T19:27:38.727Z,5.23
2023-02-06T19:30:07.964Z,5.77
2023-02-06T19:32:35.352Z,5.13
2023-02-06T19:35:02.959Z,5.00
2023-02-06T19:37:29.807Z,4.87
2023-02-06T19:39:56.810Z,4.33
2023-02-06T19:42:23.621Z,5.60
2023-02-06T19:44:54.973Z,5.93
2023-02-06T19:47:22.422Z,5.03
2023-02-06T19:49:51.667Z,6.07
2023-02-06T19:52:19.091Z,4.90
2023-02-06T19:54:47.913Z,5.13
2023-02-06T19:57:16.247Z,4.93
2023-02-06T19:59:42.982Z,7.03
2023-02-06T20:02:12.963Z,6.33
2023-02-06T20:04:39.936Z,5.60
2023-02-06T20:07:06.702Z,5.70
2023-02-06T20:09:33.652Z,6.53
2023-02-06T20:12:00.731Z,4.57
2023-02-06T20:14:27.875Z,5.37
2023-02-06T20:16:54.873Z,5.87
2023-02-06T20:19:24.960Z,4.77
2023-02-06T20:21:54.517Z,7.17
2023-02-06T20:24:29.434Z,5.53
2023-02-06T20:27:00.174Z,5.70
2023-02-06T20:29:30.189Z,7.27
2023-02-06T20:31:57.634Z,5.47
2023-02-06T20:34:26.575Z,5.83
2023-02-06T20:36:53.735Z,5.63
2023-02-06T20:39:20.779Z,6.13
2023-02-06T20:41:49.650Z,4.57
2023-02-06T20:44:17.424Z,4.37
2023-02-06T20:46:44.046Z,6.77
2023-02-06T20:49:31.315Z,5.63
2023-02-06T20:51:58.682Z,4.50
2023-02-06T20:54:25.904Z,5.37
2023-02-06T20:56:52.737Z,5.87
2023-02-06T20:59:20.596Z,4.37
2023-02-06T21:01:47.852Z,4.60
2023-02-06T21:04:16.732Z,4.47
2023-02-06T21:06:44.122Z,4.57
2023-02-06T21:09:11.411Z,3.80
2023-02-06T21:11:44.277Z,3.50
2023-02-06T21:14:11.876Z,4.30
2023-02-06T21:16:39.238Z,3.70
2023-02-06T21:19:07.994Z,3.87
2023-02-06T21:21:35.301Z,4.70
2023-02-06T21:24:02.095Z,3.47
2023-02-06T21:26:29.602Z,4.40
2023-02-06T21:28:58.278Z,4.30
2023-02-06T21:31:37.035Z,3.67
2023-02-06T21:34:17.181Z,4.57
2023-02-06T21:36:44.501Z,3.63
2023-02-06T21:39:16.161Z,6.00
2023-02-06T21:41:44.059Z,3.60
2023-02-06T21:44:10.804Z,3.27
2023-02-06T21:46:37.633Z,3.53
2023-02-06T21:49:06.496Z,3.43
2023-02-06T21:51:33.173Z,4.40
2023-02-06T21:53:59.810Z,3.40
2023-02-06T21:56:27.626Z,3.57
2023-02-06T21:58:54.501Z,4.00
2023-02-06T22:01:24.252Z,5.00
2023-02-06T22:03:51.374Z,4.47
2023-02-06T22:06:20.200Z,4.53
2023-02-06T22:08:51.890Z,6.03
2023-02-06T22:11:22.524Z,5.30
2023-02-06T22:13:49.931Z,4.03
2023-02-06T22:16:22.334Z,3.87
2023-02-06T22:18:49.570Z,3.83
2023-02-06T22:21:19.168Z,3.97
2023-02-06T22:23:47.313Z,4.33
2023-02-06T22:26:16.534Z,4.07
2023-02-06T22:28:43.517Z,3.20
2023-02-06T22:31:25.353Z,3.73
2023-02-06T22:33:53.812Z,4.13
2023-02-06T22:36:23.582Z,6.13
2023-02-06T22:38:56.413Z,5.53
2023-02-06T22:41:23.312Z,6.07
2023-02-06T22:43:51.146Z,5.07
2023-02-06T22:46:24.215Z,4.30
2023-02-06T22:48:50.956Z,6.07
2023-02-06T22:51:18.547Z,5.60
2023-02-06T22:53:45.663Z,6.90
2023-02-06T22:56:37.191Z,5.93
2023-02-06T22:59:17.704Z,7.13
2023-02-06T23:01:58.838Z,6.63
2023-02-06T23:04:28.522Z,6.50
2023-02-06T23:06:55.123Z,5.87
2023-02-06T23:09:26.918Z,4.93
2023-02-06T23:11:54.533Z,5.17
2023-02-06T23:14:21.924Z,5.33
2023-02-06T23:16:48.845Z,4.67
2023-02-06T23:19:16.441Z,4.57
2023-02-06T23:21:45.066Z,5.30
2023-02-06T23:24:12.899Z,4.73
2023-02-06T23:26:42.588Z,4.80
2023-02-06T23:29:11.004Z,5.03
2023-02-06T23:31:37.898Z,5.70
2023-02-06T23:34:04.733Z,4.83
2023-02-06T23:36:31.344Z,5.23
2023-02-06T23:39:01.486Z,5.87
2023-02-06T23:41:29.051Z,4.17
2023-02-06T23:44:04.456Z,5.60
2023-02-06T23:46:33.159Z,6.07
2023-02-06T23:48:59.923Z,5.17
2023-02-06T23:51:26.649Z,4.57
2023-02-06T23:53:53.386Z,4.53
2023-02-06T23:56:25.981Z,4.50
2023-02-06T23:58:54.585Z,4.50
